Time;durP1;ratioP1;P1;durP2;ratioP2;P2;SDS_P1;SDS_P2;PMS_P1;PMS_P2;Temp;Humidity;BMP_temperature;BMP_pressure;BME280_temperature;BME280_humidity;BME280_pressure;Samples;Min_cycle;Max_cycle;Signal;HPM_P1;HPM_P2
2023/10/14 00:00:46;;;;;;;23.27;9.90;;;;;;;-143.21;62.17;72599.69;5067969;28;20205;-78
2023/10/14 00:03:27;;;;;;;24.50;9.97;;;;;;;-143.21;62.41;72607.63;5068113;28;20202;-79
2023/10/14 00:05:54;;;;;;;25.63;10.00;;;;;;;-143.21;62.22;72609.63;5067202;28;20292;-78
2023/10/14 00:08:26;;;;;;;19.13;9.27;;;;;;;-143.21;62.55;72611.59;5067658;28;20235;-78
2023/10/14 00:10:53;;;;;;;20.37;9.07;;;;;;;-143.21;62.33;72607.63;5067799;28;20310;-77
2023/10/14 00:13:20;;;;;;;22.30;9.53;;;;;;;-143.21;62.51;72611.59;5068375;28;20244;-77
2023/10/14 00:15:46;;;;;;;30.40;10.47;;;;;;;-143.21;62.52;72619.53;5067601;28;20205;-77
2023/10/14 00:18:14;;;;;;;25.13;10.67;;;;;;;-143.21;62.33;72617.56;5067467;28;20204;-78
2023/10/14 00:20:42;;;;;;;21.73;10.70;;;;;;;-143.21;62.38;72609.63;5067240;28;20216;-78
2023/10/14 00:23:11;;;;;;;34.20;14.83;;;;;;;-143.21;62.67;72619.53;5067333;28;20313;-77
2023/10/14 00:25:39;;;;;;;43.73;19.37;;;;;;;-143.21;62.63;72625.47;5067709;28;20279;-78
2023/10/14 00:28:12;;;;;;;35.00;16.33;;;;;;;-143.21;62.65;72621.53;5067625;28;20229;-78
2023/10/14 00:30:40;;;;;;;24.40;14.73;;;;;;;-143.21;62.70;72623.50;5067733;28;20595;-77
2023/10/14 00:33:07;;;;;;;29.07;13.67;;;;;;;-143.21;63.17;72637.38;5068253;28;20205;-77
2023/10/14 00:35:39;;;;;;;28.57;11.53;;;;;;;-143.21;63.21;72641.34;5066915;28;20208;-77
2023/10/14 00:38:08;;;;;;;29.90;12.27;;;;;;;-143.21;63.41;72645.31;5067943;28;20201;-77
2023/10/14 00:40:37;;;;;;;26.37;10.33;;;;;;;-143.21;63.21;72639.38;5067100;28;20274;-76
2023/10/14 00:43:07;;;;;;;25.70;11.03;;;;;;;-143.21;62.95;72641.34;5067404;28;20597;-76
2023/10/14 00:45:42;;;;;;;24.80;10.00;;;;;;;-143.21;63.01;72641.34;5067627;28;20194;-77
2023/10/14 00:48:19;;;;;;;25.43;9.17;;;;;;;-143.21;62.94;72641.34;5067366;28;20611;-77
2023/10/14 00:50:46;;;;;;;27.87;10.00;;;;;;;-143.21;63.23;72653.25;5066755;28;20205;-77
2023/10/14 00:53:15;;;;;;;20.10;9.83;;;;;;;-143.21;63.25;72649.28;5067501;28;20236;-77
2023/10/14 00:55:53;;;;;;;23.77;9.87;;;;;;;-143.21;63.57;72653.25;5067791;28;20213;-77
2023/10/14 00:58:23;;;;;;;22.93;10.03;;;;;;;-143.21;63.51;72651.28;5067630;28;20205;-78
2023/10/14 01:00:59;;;;;;;25.20;10.23;;;;;;;-143.21;63.39;72649.28;5067279;28;20687;-78
2023/10/14 01:03:26;;;;;;;26.83;10.13;;;;;;;-143.21;63.83;72651.28;5067573;28;20205;-78
2023/10/14 01:05:56;;;;;;;22.27;10.43;;;;;;;-143.21;63.86;72653.25;5067531;28;20293;-78
2023/10/14 01:08:25;;;;;;;29.43;9.80;;;;;;;-143.21;64.12;72657.22;5070742;28;20235;-76
2023/10/14 01:10:52;;;;;;;23.90;9.77;;;;;;;-143.21;64.03;72659.19;5070975;28;20209;-76
2023/10/14 01:13:22;;;;;;;21.53;9.23;;;;;;;-143.21;63.95;72651.28;5070784;28;20206;-78
2023/10/14 01:16:00;;;;;;;20.17;10.40;;;;;;;-143.21;64.20;72649.28;5070752;28;20304;-78
2023/10/14 01:18:27;;;;;;;25.97;9.60;;;;;;;-143.21;64.25;72653.25;5067615;28;20646;-77
2023/10/14 01:20:57;;;;;;;18.90;9.43;;;;;;;-143.21;64.43;72663.16;5070540;28;20213;-77
2023/10/14 01:23:26;;;;;;;23.67;8.83;;;;;;;-143.21;64.49;72661.19;5071013;28;20208;-77
2023/10/14 01:25:53;;;;;;;17.90;8.90;;;;;;;-143.21;64.59;72663.16;5071156;28;20221;-77
2023/10/14 01:28:23;;;;;;;21.67;9.07;;;;;;;-143.21;64.38;72657.22;5070783;28;20229;-76
2023/10/14 01:31:30;;;;;;;24.53;10.00;;;;;;;-143.21;64.38;72657.22;5070779;28;20215;-75
2023/10/14 01:33:57;;;;;;;21.80;8.20;;;;;;;-143.21;63.93;72653.25;5072142;28;20204;-77
2023/10/14 01:36:27;;;;;;;16.70;8.57;;;;;;;-143.21;64.35;72659.19;5071255;28;20212;-76
2023/10/14 01:38:59;;;;;;;18.43;8.70;;;;;;;-143.21;64.76;72671.09;5070640;28;20213;-76
2023/10/14 01:41:29;;;;;;;19.07;7.93;;;;;;;-143.21;64.72;72679.03;5071472;28;20294;-78
2023/10/14 01:43:58;;;;;;;15.93;8.67;;;;;;;-143.21;64.62;72669.13;5070589;28;20201;-77
2023/10/14 01:46:27;;;;;;;20.57;8.80;;;;;;;-143.21;64.62;72675.06;5070587;28;20248;-77
2023/10/14 01:48:56;;;;;;;15.97;8.77;;;;;;;-143.21;64.56;72677.06;5070476;28;20225;-77
2023/10/14 01:51:25;;;;;;;22.00;8.97;;;;;;;-143.21;64.98;72686.97;5070578;28;20251;-77
2023/10/14 01:53:51;;;;;;;20.80;8.93;;;;;;;-143.21;64.90;72679.03;5070204;28;20659;-77
2023/10/14 01:56:20;;;;;;;19.20;9.47;;;;;;;-143.21;64.86;72677.06;5070693;28;20204;-77
2023/10/14 01:58:52;;;;;;;21.97;9.17;;;;;;;-143.21;65.21;72686.97;5070355;28;20198;-77
2023/10/14 02:01:19;;;;;;;18.63;8.23;;;;;;;-143.21;64.96;72685.00;5070507;28;20615;-77
2023/10/14 02:03:48;;;;;;;18.93;8.67;;;;;;;-143.21;64.92;72690.94;5070616;28;20661;-77
2023/10/14 02:06:18;;;;;;;23.00;9.23;;;;;;;-143.21;65.03;72692.91;5070523;28;20576;-77
2023/10/14 02:08:45;;;;;;;19.67;8.27;;;;;;;-143.21;64.90;72681.03;5070317;28;20224;-76
2023/10/14 02:11:12;;;;;;;22.10;8.37;;;;;;;-143.21;65.05;72688.94;5070817;28;20205;-77
2023/10/14 02:13:41;;;;;;;18.53;8.13;;;;;;;-143.21;65.06;72690.94;5070263;28;20205;-78
2023/10/14 02:16:10;;;;;;;17.20;8.20;;;;;;;-143.21;65.21;72688.94;5070503;28;20587;-77
2023/10/14 02:18:38;;;;;;;21.97;8.40;;;;;;;-143.21;65.28;72700.84;5069544;28;20292;-78
2023/10/14 02:21:06;;;;;;;17.17;8.20;;;;;;;-143.21;65.34;72690.94;5069942;28;20201;-77
2023/10/14 02:23:47;;;;;;;18.10;8.27;;;;;;;-143.21;65.21;72694.91;5069477;28;20207;-76
2023/10/14 02:26:17;;;;;;;19.97;8.37;;;;;;;-143.21;65.29;72690.94;5069451;28;20205;-76
2023/10/14 02:28:48;;;;;;;25.37;8.83;;;;;;;-143.21;64.97;72683.00;5068586;28;20229;-78
2023/10/14 02:31:28;;;;;;;17.93;8.77;;;;;;;-143.21;65.25;72698.88;5069383;28;20200;-77
2023/10/14 02:33:55;;;;;;;19.77;8.43;;;;;;;-143.21;65.41;72700.84;5069697;28;20198;-76
2023/10/14 02:36:28;;;;;;;19.10;8.50;;;;;;;-143.21;65.82;72706.81;5069783;28;20209;-77
2023/10/14 02:38:56;;;;;;;18.10;8.43;;;;;;;-143.21;65.69;72700.84;5069328;28;20202;-77
2023/10/14 02:41:26;;;;;;;18.00;7.40;;;;;;;-143.21;65.54;72700.84;5069854;28;20229;-78
2023/10/14 02:44:14;;;;;;;12.87;7.53;;;;;;;-143.21;65.88;72704.81;5069383;28;20217;-78
2023/10/14 02:46:43;;;;;;;14.17;7.30;;;;;;;-143.21;66.54;72712.75;5067697;28;20205;-78
2023/10/14 02:49:13;;;;;;;15.37;7.67;;;;;;;-143.21;66.35;72720.69;5069510;28;20228;-78
2023/10/14 02:51:42;;;;;;;17.60;7.10;;;;;;;-143.21;66.17;72716.72;5068900;28;20705;-78
2023/10/14 02:54:15;;;;;;;16.17;7.23;;;;;;;-143.21;66.14;72718.69;5069173;28;20548;-77
2023/10/14 02:56:55;;;;;;;21.40;7.70;;;;;;;-143.21;65.89;72710.78;5068796;28;20198;-77
2023/10/14 02:59:35;;;;;;;18.50;7.00;;;;;;;-143.21;65.98;72712.75;5068571;28;20205;-77
2023/10/14 03:02:16;;;;;;;13.17;7.13;;;;;;;-143.21;66.05;72710.78;5069118;28;20237;-78
2023/10/14 03:04:55;;;;;;;17.97;7.70;;;;;;;-143.21;65.63;72712.75;5068470;28;20204;-77
2023/10/14 03:07:27;;;;;;;19.20;6.97;;;;;;;-143.21;65.86;72706.81;5068887;28;20205;-78
2023/10/14 03:09:58;;;;;;;13.07;6.70;;;;;;;-143.21;66.02;72720.69;5068497;28;20233;-77
2023/10/14 03:12:25;;;;;;;18.83;6.57;;;;;;;-143.21;66.34;72726.63;5068754;28;20205;-77
2023/10/14 03:14:53;;;;;;;14.53;6.67;;;;;;;-143.21;66.74;72734.56;5069395;28;21435;-78
2023/10/14 03:17:25;;;;;;;15.40;7.40;;;;;;;-143.21;66.98;72752.41;5069602;28;20315;-78
2023/10/14 03:19:54;;;;;;;18.37;7.20;;;;;;;-143.21;66.92;72746.47;5068725;28;20648;-78
2023/10/14 03:22:27;;;;;;;19.67;7.87;;;;;;;-143.21;66.61;72736.56;5068186;28;20205;-77
2023/10/14 03:25:09;;;;;;;17.13;7.40;;;;;;;-143.21;66.61;72738.53;5068294;28;20217;-77
2023/10/14 03:27:39;;;;;;;12.60;6.77;;;;;;;-143.21;66.61;72742.50;5067849;28;20205;-78
2023/10/14 03:30:11;;;;;;;19.93;7.37;;;;;;;-143.21;66.75;72752.41;5067627;28;20228;-78
2023/10/14 03:32:42;;;;;;;17.40;7.13;;;;;;;-143.21;66.64;72744.50;5068996;28;20212;-78
2023/10/14 03:35:13;;;;;;;20.80;7.60;;;;;;;-143.21;66.63;72752.41;5068367;28;20197;-78
2023/10/14 03:37:52;;;;;;;16.33;6.93;;;;;;;-143.21;66.93;72750.44;5068091;28;20204;-78
2023/10/14 03:40:51;;;;;;;20.90;7.83;;;;;;;-143.21;66.88;72752.41;5068794;28;20296;-78
2023/10/14 03:43:19;;;;;;;22.37;7.37;;;;;;;-143.21;66.53;72750.44;5067846;28;20217;-78
2023/10/14 03:45:56;;;;;;;13.70;7.17;;;;;;;-143.21;66.58;72752.41;5068133;28;20205;-78
2023/10/14 03:48:27;;;;;;;20.27;7.27;;;;;;;-143.21;66.35;72748.47;5068548;28;20225;-78
2023/10/14 03:51:02;;;;;;;21.57;8.00;;;;;;;-143.21;66.62;72758.38;5068150;28;20296;-77
2023/10/14 03:53:31;;;;;;;21.40;7.77;;;;;;;-143.21;66.79;72752.41;5068445;28;20278;-78
2023/10/14 03:55:59;;;;;;;19.53;7.07;;;;;;;-143.21;66.61;72752.41;5068618;28;20255;-77
2023/10/14 03:58:26;;;;;;;18.87;7.60;;;;;;;-143.21;66.88;72752.41;5068633;28;20276;-78
2023/10/14 04:00:56;;;;;;;17.23;7.27;;;;;;;-143.21;67.02;72760.34;5067855;28;20213;-78
2023/10/14 04:03:39;;;;;;;18.20;7.90;;;;;;;-143.21;66.88;72756.38;5067906;28;20212;-81
2023/10/14 04:06:08;;;;;;;19.30;8.00;;;;;;;-143.21;67.11;72758.38;5067508;28;20197;-77
2023/10/14 04:08:46;;;;;;;15.83;7.53;;;;;;;-143.21;67.21;72762.34;5067748;28;20244;-78
2023/10/14 04:11:14;;;;;;;17.13;7.57;;;;;;;-143.21;67.24;72768.28;5068407;28;20205;-78
2023/10/14 04:13:50;;;;;;;19.60;7.30;;;;;;;-143.21;67.40;72760.34;5068049;28;20668;-78
2023/10/14 04:16:27;;;;;;;16.80;7.37;;;;;;;-143.21;67.66;72772.25;5067912;28;20304;-78
2023/10/14 04:18:59;;;;;;;16.27;7.37;;;;;;;-143.21;67.45;72766.31;5068250;28;20209;-78
2023/10/14 04:21:35;;;;;;;19.47;7.80;;;;;;;-143.21;67.58;72760.34;5065029;28;20239;-78
2023/10/14 04:24:12;;;;;;;17.00;7.70;;;;;;;-143.21;67.58;72762.34;5068370;28;20209;-78
2023/10/14 04:26:41;;;;;;;18.33;7.33;;;;;;;-143.21;67.98;72766.31;5067793;28;20287;-79
2023/10/14 04:29:18;;;;;;;13.63;7.10;;;;;;;-143.21;67.95;72764.31;5067440;28;20233;-78
2023/10/14 04:31:55;;;;;;;18.07;7.63;;;;;;;-143.21;67.68;72762.34;5067604;28;20197;-78
2023/10/14 04:34:23;;;;;;;19.47;7.60;;;;;;;-143.21;67.78;72756.38;5068044;28;20585;-78
2023/10/14 04:36:56;;;;;;;17.43;7.33;;;;;;;-143.21;67.71;72768.28;5067689;28;20217;-78
2023/10/14 04:39:32;;;;;;;16.40;7.77;;;;;;;-143.21;67.50;72764.31;5068263;28;20201;-77
2023/10/14 04:44:55;;;;;;;16.77;8.03;;;;;;;-143.21;67.89;72778.22;5071025;28;20204;-78
2023/10/14 04:47:35;;;;;;;21.50;9.10;;;;;;;-143.21;68.23;72788.13;5071651;28;20653;-78
2023/10/14 04:50:10;;;;;;;17.50;7.80;;;;;;;-143.21;68.34;72786.13;5068640;28;20251;-77
2023/10/14 04:52:38;;;;;;;21.27;8.57;;;;;;;-143.21;68.61;72794.06;5071000;28;20197;-77
2023/10/14 04:55:20;;;;;;;26.03;8.03;;;;;;;-143.21;68.61;72790.09;5071382;28;20205;-77
2023/10/14 04:58:06;;;;;;;29.23;8.50;;;;;;;-143.21;68.33;72798.03;5070769;28;20216;-77
2023/10/14 05:00:41;;;;;;;18.53;7.87;;;;;;;-143.21;68.08;72792.09;5068545;28;20197;-78
2023/10/14 05:03:11;;;;;;;18.23;9.20;;;;;;;-143.21;68.42;72796.06;5069735;28;20667;-77
2023/10/14 05:05:41;;;;;;;25.73;10.50;;;;;;;-143.21;68.19;72802.00;5071647;28;20263;-78
2023/10/14 05:08:12;;;;;;;26.10;11.37;;;;;;;-143.21;68.26;72798.03;5070965;28;20201;-76
2023/10/14 05:10:42;;;;;;;33.33;12.07;;;;;;;-143.21;68.42;72792.09;5071162;28;20582;-77
2023/10/14 05:13:11;;;;;;;34.13;11.60;;;;;;;-143.21;68.39;72796.06;5071281;28;20225;-77
2023/10/14 05:15:42;;;;;;;33.43;12.40;;;;;;;-143.21;68.25;72782.16;5070987;28;20317;-79
2023/10/14 05:18:16;;;;;;;24.33;10.50;;;;;;;-143.21;68.05;72794.06;5070791;28;20213;-79
2023/10/14 05:21:03;;;;;;;33.03;11.90;;;;;;;-143.21;68.34;72796.06;5070646;28;20281;-78
2023/10/14 05:23:31;;;;;;;34.17;12.63;;;;;;;-143.21;68.21;72796.06;5068018;28;20564;-79
2023/10/14 05:25:59;;;;;;;31.80;13.77;;;;;;;-143.21;68.54;72798.03;5070910;28;20212;-78
2023/10/14 05:28:31;;;;;;;31.27;14.07;;;;;;;-143.21;68.31;72796.06;5070579;28;20428;-78
2023/10/14 05:31:00;;;;;;;31.57;13.00;;;;;;;-143.21;68.51;72796.06;5070508;28;20198;-78
2023/10/14 05:33:28;;;;;;;25.90;14.43;;;;;;;-143.21;68.01;72784.16;5070536;28;20224;-78
2023/10/14 05:35:57;;;;;;;33.60;14.80;;;;;;;-143.21;68.42;72790.09;5069557;28;20690;-78
2023/10/14 05:38:24;;;;;;;31.13;15.37;;;;;;;-143.21;68.69;72786.13;5069597;28;20286;-78
2023/10/14 05:44:07;;;;;;;45.67;14.97;;;;;;;-143.21;68.21;72774.25;5070857;28;20590;-78
2023/10/14 05:46:34;;;;;;;35.83;14.23;;;;;;;-143.21;68.27;72766.31;5071208;28;20235;-81
2023/10/14 05:49:04;;;;;;;32.23;15.33;;;;;;;-143.21;68.03;72768.28;5070856;28;20221;-78
2023/10/14 05:51:31;;;;;;;36.03;15.47;;;;;;;-143.21;68.08;72760.34;5067163;28;20213;-78
2023/10/14 05:53:58;;;;;;;32.90;13.90;;;;;;;-143.21;68.32;72770.28;5066638;28;20202;-78
2023/10/14 05:56:28;;;;;;;30.30;14.10;;;;;;;-143.21;67.77;72754.41;5070618;28;20205;-78
2023/10/14 05:58:54;;;;;;;44.23;15.30;;;;;;;-143.21;67.62;72746.47;5069917;28;20232;-78
2023/10/14 06:01:21;;;;;;;29.00;13.33;;;;;;;-143.21;67.37;72742.50;5070268;28;20714;-79
2023/10/14 06:03:49;;;;;;;26.27;12.30;;;;;;;-143.21;67.56;72738.53;5070096;28;20197;-79
2023/10/14 06:06:21;;;;;;;22.97;10.70;;;;;;;-143.21;67.25;72724.66;5069732;28;20726;-78
2023/10/14 06:08:49;;;;;;;18.50;11.07;;;;;;;-143.21;67.37;72728.63;5069921;28;20221;-78
2023/10/14 06:11:17;;;;;;;22.30;10.10;;;;;;;-143.21;67.22;72720.69;5069811;28;20212;-76
2023/10/14 06:13:44;;;;;;;20.40;9.93;;;;;;;-143.21;67.20;72714.72;5069777;28;20687;-78
2023/10/14 06:16:12;;;;;;;24.03;9.40;;;;;;;-143.21;67.19;72710.78;5069614;28;20553;-79
2023/10/14 06:18:40;;;;;;;16.40;9.50;;;;;;;-143.21;66.88;72702.84;5068817;28;20201;-78
2023/10/14 06:21:08;;;;;;;16.83;9.50;;;;;;;-143.21;66.76;72696.88;5069465;28;20197;-78
2023/10/14 06:23:39;;;;;;;17.67;9.53;;;;;;;-143.21;66.72;72690.94;5069411;28;20201;-78
2023/10/14 06:26:06;;;;;;;17.83;10.00;;;;;;;-143.21;66.07;72673.09;5069301;28;20602;-78
2023/10/14 06:28:33;;;;;;;20.77;9.93;;;;;;;-143.21;65.56;72661.19;5068853;28;20205;-80
2023/10/14 06:31:00;;;;;;;23.87;9.47;;;;;;;-143.21;64.91;72649.28;5066659;28;20226;-80
2023/10/14 06:33:27;;;;;;;17.67;9.50;;;;;;;-143.21;64.95;72649.28;5070378;28;20205;-80
2023/10/14 06:36:03;;;;;;;26.07;9.40;;;;;;;-143.21;65.06;72645.31;5070207;28;20660;-80
2023/10/14 06:39:14;;;;;;;18.07;9.40;;;;;;;-143.21;63.78;72631.44;5067092;28;20197;-81
2023/10/14 06:41:43;;;;;;;20.10;10.30;;;;;;;-143.21;64.15;72627.47;5067256;28;20197;-78
2023/10/14 06:44:14;;;;;;;26.13;10.37;;;;;;;-143.21;64.31;72623.50;5069353;28;20205;-79
2023/10/14 06:49:23;;;;;;;21.63;10.10;;;;;;;-143.21;64.54;72611.59;5067767;28;20232;-80
2023/10/14 06:51:55;;;;;;;22.13;10.27;;;;;;;-143.21;64.62;72607.63;5068667;28;20618;-78
2023/10/14 06:54:28;;;;;;;28.97;10.17;;;;;;;-143.21;64.33;72597.72;5068366;28;20282;-78
2023/10/14 06:56:55;;;;;;;30.50;10.63;;;;;;;-143.21;64.04;72585.81;5069642;28;20200;-78
2023/10/14 06:59:30;;;;;;;24.50;11.43;;;;;;;-143.21;64.31;72577.88;5069635;28;20204;-83
2023/10/14 07:01:59;;;;;;;23.63;10.90;;;;;;;-143.21;64.32;72565.97;5064960;28;20371;-77
2023/10/14 07:04:26;;;;;;;21.03;10.97;;;;;;;-143.21;63.38;72548.13;5064922;28;20264;-77
2023/10/14 07:06:58;;;;;;;25.40;11.50;;;;;;;-143.21;63.25;72544.16;5068176;28;20209;-79
2023/10/14 07:10:27;;;;;;;27.43;11.53;;;;;;;-143.21;62.79;72528.31;5068839;28;20205;-79
2023/10/14 07:12:58;;;;;;;29.30;12.03;;;;;;;-143.21;62.20;72514.41;5051134;28;20686;-78
2023/10/14 07:15:26;;;;;;;28.10;12.17;;;;;;;-143.21;62.17;72516.41;5068940;28;20208;-78
2023/10/14 07:17:54;;;;;;;20.30;12.13;;;;;;;-143.21;62.22;72512.44;5069063;28;20684;-78
2023/10/14 07:20:39;;;;;;;22.60;12.23;;;;;;;-143.21;62.13;72496.56;5068678;28;20201;-79
2023/10/14 07:23:08;;;;;;;24.40;12.77;;;;;;;-143.21;61.89;72494.59;5065789;28;20201;-77
2023/10/14 07:25:39;;;;;;;18.73;11.93;;;;;;;-143.21;61.65;72474.75;5069187;28;20621;-84
2023/10/14 07:30:58;;;;;;;27.20;12.10;;;;;;;-143.21;61.07;72454.91;5024383;28;20596;-77
2023/10/14 07:33:27;;;;;;;32.20;13.23;;;;;;;-143.21;61.07;72447.00;5025181;28;20214;-77
2023/10/14 07:35:54;;;;;;;29.53;13.90;;;;;;;-143.21;60.52;72431.13;5028103;28;20293;-78
2023/10/14 07:38:21;;;;;;;29.07;14.03;;;;;;;-143.21;60.42;72421.22;5028127;28;20269;-77
2023/10/14 07:43:40;;;;;;;34.87;14.03;;;;;;;-143.21;59.72;72395.44;5024771;28;20213;-77
2023/10/14 07:46:08;;;;;;;27.83;13.93;;;;;;;-143.21;60.12;72391.47;5027961;28;20202;-76
2023/10/14 07:48:37;;;;;;;35.97;14.80;;;;;;;-143.21;59.70;72381.53;5027437;28;20590;-77
2023/10/14 07:51:06;;;;;;;27.40;13.60;;;;;;;-143.21;59.45;72369.66;5027948;28;20250;-76
2023/10/14 07:53:43;;;;;;;29.63;13.73;;;;;;;-143.21;59.23;72357.75;5027521;28;20281;-76
2023/10/14 07:56:10;;;;;;;33.57;13.93;;;;;;;-143.21;59.06;72343.88;5026303;28;20281;-77
2023/10/14 07:58:38;;;;;;;31.60;14.30;;;;;;;-143.21;58.79;72335.94;5027831;28;20233;-77
2023/10/14 08:01:09;;;;;;;35.50;13.57;;;;;;;-143.21;58.60;72324.03;5028527;28;20210;-77
2023/10/14 08:03:59;;;;;;;30.37;14.20;;;;;;;-143.21;58.21;72308.16;5028572;28;20199;-77
2023/10/14 08:06:26;;;;;;;29.70;13.43;;;;;;;-143.21;57.48;72286.34;5026863;28;20211;-78
2023/10/14 08:08:53;;;;;;;25.97;13.07;;;;;;;-143.21;57.46;72272.47;5026437;28;20245;-77
2023/10/14 08:11:21;;;;;;;25.97;13.23;;;;;;;-143.21;57.21;72266.53;5026521;28;20234;-76
2023/10/14 08:13:49;;;;;;;24.43;12.67;;;;;;;-143.21;56.58;72252.63;5028288;28;20628;-77
2023/10/14 08:16:18;;;;;;;27.43;12.27;;;;;;;-143.21;55.95;72242.72;5030329;28;20195;-77
2023/10/14 08:18:46;;;;;;;26.30;11.93;;;;;;;-143.21;55.61;72211.00;5030827;28;20313;-76
2023/10/14 08:21:13;;;;;;;26.37;11.93;;;;;;;-143.21;54.59;72185.22;5031624;28;20199;-77
2023/10/14 08:23:40;;;;;;;26.23;11.87;;;;;;;-143.21;54.19;72159.44;5031318;28;20653;-78
2023/10/14 08:26:13;;;;;;;31.83;11.57;;;;;;;-143.21;52.89;72125.72;5031286;28;20201;-77
2023/10/14 08:28:40;;;;;;;22.02;11.90;;;;;;;-143.21;52.64;72097.97;5034180;28;20379;-77
2023/10/14 08:31:08;;;;;;;28.65;11.60;;;;;;;-143.21;51.56;72068.22;5069623;28;20604;-77
2023/10/14 08:33:36;;;;;;;19.60;10.45;;;;;;;-143.21;51.23;72028.56;5069740;28;20221;-78
2023/10/14 08:36:03;;;;;;;26.58;11.40;;;;;;;-143.21;49.43;71986.91;5067714;28;20194;-77
2023/10/14 08:38:30;;;;;;;29.60;11.10;;;;;;;-143.21;48.89;71949.25;5070008;28;20610;-77
2023/10/14 08:40:59;;;;;;;23.92;10.48;;;;;;;-143.21;48.54;71915.53;5071249;28;20208;-78
2023/10/14 08:43:35;;;;;;;19.13;10.63;;;;;;;-143.21;47.82;71877.84;5070951;28;20225;-78
2023/10/14 08:46:05;;;;;;;26.48;10.48;;;;;;;-143.21;47.46;71836.22;5070768;28;20189;-78
2023/10/14 08:48:42;;;;;;;26.35;9.15;;;;;;;-143.21;45.97;71788.63;5065268;28;20239;-78
2023/10/14 08:51:15;;;;;;;22.25;9.60;;;;;;;-143.21;45.17;71746.97;5069825;28;20307;-78
2023/10/14 08:53:53;;;;;;;15.73;9.52;;;;;;;-143.21;44.20;71723.19;5071028;28;20201;-79
2023/10/14 08:56:22;;;;;;;20.10;8.85;;;;;;;-143.21;43.56;71687.50;5070630;28;20196;-77
2023/10/14 08:58:50;;;;;;;24.63;8.82;;;;;;;-143.21;43.14;71647.84;5071320;28;20217;-79
2023/10/14 09:01:32;;;;;;;18.67;8.80;;;;;;;-143.21;42.04;71606.22;5072907;28;20201;-78
2023/10/14 09:04:00;;;;;;;28.10;10.07;;;;;;;-143.21;41.27;71566.56;5071972;28;20205;-78
2023/10/14 09:06:33;;;;;;;17.45;8.35;;;;;;;-143.21;40.96;71522.94;5071600;28;20216;-77
2023/10/14 09:08:59;;;;;;;23.63;8.95;;;;;;;-143.21;40.55;71477.34;5068680;28;20668;-79
2023/10/14 09:11:28;;;;;;;18.13;8.68;;;;;;;-143.21;39.25;71457.50;5071452;28;20233;-78
2023/10/14 09:14:03;;;;;;;13.38;8.15;;;;;;;-143.21;39.17;71445.59;5070915;28;20209;-79
2023/10/14 09:16:34;;;;;;;14.98;8.40;;;;;;;-143.21;38.83;71417.84;5071684;28;20228;-78
2023/10/14 09:19:18;;;;;;;17.40;8.73;;;;;;;-143.21;38.00;71390.09;5070993;28;20293;-79
2023/10/14 09:21:46;;;;;;;16.75;7.82;;;;;;;-143.21;38.19;71346.47;5069841;28;20224;-77
2023/10/14 09:24:13;;;;;;;21.77;8.40;;;;;;;-143.21;37.43;71300.88;5069059;28;20719;-77
2023/10/14 09:26:43;;;;;;;19.23;7.72;;;;;;;-143.21;36.75;71249.34;5068081;28;20335;-77
2023/10/14 09:29:11;;;;;;;19.27;8.68;;;;;;;-143.21;36.32;71199.78;5070235;28;20242;-78
2023/10/14 09:31:47;;;;;;;16.80;7.93;;;;;;;-143.21;35.46;71174.00;5070938;28;20245;-78
2023/10/14 09:34:32;;;;;;;15.20;7.40;;;;;;;-143.21;35.48;71158.13;5069971;28;20598;-78
2023/10/14 09:37:10;;;;;;;17.90;7.60;;;;;;;-143.21;34.80;71124.44;5070882;28;20209;-79
2023/10/14 09:39:41;;;;;;;21.85;8.15;;;;;;;-143.21;34.61;71108.56;5068112;28;20270;-78
2023/10/14 09:42:11;;;;;;;18.42;7.97;;;;;;;-143.21;34.10;71070.91;5070014;28;20205;-78
2023/10/14 09:44:40;;;;;;;20.00;8.13;;;;;;;-143.21;34.02;71007.47;5070081;28;20288;-78
2023/10/14 09:47:15;;;;;;;20.40;8.50;;;;;;;-143.21;33.25;70946.03;5069430;28;20197;-78
2023/10/14 09:49:50;;;;;;;20.92;8.50;;;;;;;-143.21;32.81;70904.38;5069208;28;20208;-79
2023/10/14 09:52:25;;;;;;;21.05;7.72;;;;;;;-143.21;32.04;70866.72;5069552;28;20590;-79
2023/10/14 09:54:56;;;;;;;15.00;6.82;;;;;;;-143.21;31.65;70844.91;5070038;28;20212;-79
2023/10/14 09:57:29;;;;;;;19.88;7.53;;;;;;;-143.21;31.31;70801.31;5070052;28;20312;-78
2023/10/14 09:59:57;;;;;;;21.77;7.47;;;;;;;-143.21;31.45;70749.78;5070116;28;20292;-80
2023/10/14 10:02:25;;;;;;;16.77;7.88;;;;;;;-143.21;30.31;70690.31;5070642;28;20205;-80
2023/10/14 10:04:55;;;;;;;18.75;6.88;;;;;;;-143.21;29.90;70654.63;5069947;28;20655;-81
2023/10/14 10:07:42;;;;;;;20.02;6.65;;;;;;;-143.21;29.11;70614.97;5070780;28;20201;-79
2023/10/14 10:10:20;;;;;;;15.23;7.20;;;;;;;-143.21;29.07;70591.19;5068612;28;20197;-78
2023/10/14 10:12:55;;;;;;;21.27;7.65;;;;;;;-143.21;29.17;70571.38;5069349;28;20204;-79
2023/10/14 10:15:24;;;;;;;14.60;7.68;;;;;;;-143.21;28.76;70529.75;5069604;28;20227;-79
2023/10/14 10:18:15;;;;;;;20.08;7.05;;;;;;;-143.21;28.37;70511.91;5069806;28;20745;-79
2023/10/14 10:20:51;;;;;;;12.50;6.13;;;;;;;-143.21;28.35;70464.34;5067261;28;20240;-79
2023/10/14 10:26:12;;;;;;;15.00;6.15;;;;;;;-143.21;27.54;70381.09;5058554;28;20687;-78
2023/10/14 10:28:40;;;;;;;14.43;6.13;;;;;;;-143.21;27.22;70383.06;5068906;28;20684;-77
2023/10/14 10:31:10;;;;;;;12.55;5.95;;;;;;;-143.21;27.30;70355.31;5068410;28;20205;-77
2023/10/14 10:33:54;;;;;;;16.20;6.22;;;;;;;-143.21;27.59;70315.69;5068747;28;20194;-78
2023/10/14 10:36:25;;;;;;;15.55;5.55;;;;;;;-143.21;26.92;70272.09;5068518;28;20201;-78
2023/10/14 10:38:54;;;;;;;12.40;5.32;;;;;;;-143.21;26.39;70268.13;5068134;28;20201;-77
2023/10/14 10:41:25;;;;;;;12.52;5.57;;;;;;;-143.21;26.34;70222.53;5069218;28;20213;-77
2023/10/14 10:43:53;;;;;;;13.02;5.78;;;;;;;-143.21;26.14;70184.88;5068855;28;20228;-78
2023/10/14 10:46:37;;;;;;;10.68;5.50;;;;;;;-143.21;25.47;70141.28;5067560;28;20201;-78
2023/10/14 10:49:06;;;;;;;9.10;4.72;;;;;;;-143.21;25.24;70159.13;5066211;28;20211;-78
2023/10/14 10:51:34;;;;;;;15.32;5.78;;;;;;;-143.21;25.51;70143.25;5067391;28;20213;-78
2023/10/14 10:54:03;;;;;;;10.02;4.60;;;;;;;-143.21;25.50;70127.41;5052183;28;20627;-78
2023/10/14 10:56:33;;;;;;;12.65;4.50;;;;;;;-143.21;24.67;70113.53;5046934;28;20201;-79
2023/10/14 10:59:04;;;;;;;9.77;4.30;;;;;;;-143.21;24.89;70103.63;5067742;28;20743;-78
2023/10/14 11:01:35;;;;;;;13.63;4.70;;;;;;;-143.21;25.17;70073.91;5066297;28;20203;-78
2023/10/14 11:04:08;;;;;;;10.15;4.40;;;;;;;-143.21;24.83;70050.09;5068395;28;20213;-77
2023/10/14 11:06:36;;;;;;;13.73;4.28;;;;;;;-143.21;24.37;70008.50;5068534;28;20288;-77
2023/10/14 11:09:04;;;;;;;9.73;4.63;;;;;;;-143.21;24.45;69978.75;5068445;28;20215;-78
2023/10/14 11:11:33;;;;;;;9.52;4.53;;;;;;;-143.21;24.38;69956.97;5068423;28;20754;-78
2023/10/14 11:14:01;;;;;;;8.98;4.50;;;;;;;-143.21;23.93;69925.25;5065106;28;20284;-78
2023/10/14 11:16:34;;;;;;;11.13;4.70;;;;;;;-143.21;23.95;69907.41;5065005;28;20634;-78
2023/10/14 11:19:07;;;;;;;11.60;4.45;;;;;;;-143.21;23.40;69891.56;5065523;28;20193;-78
2023/10/14 11:21:39;;;;;;;6.80;3.42;;;;;;;-143.21;23.43;69905.44;5065638;28;20243;-77
2023/10/14 11:24:09;;;;;;;15.35;3.97;;;;;;;-143.21;23.61;69901.47;5067823;28;20224;-77
2023/10/14 11:26:37;;;;;;;10.68;4.13;;;;;;;-143.21;23.67;69867.78;5068069;28;20197;-77
2023/10/14 11:29:06;;;;;;;13.88;4.50;;;;;;;-143.21;23.69;69842.03;5068058;28;20715;-77
2023/10/14 11:31:36;;;;;;;13.35;4.75;;;;;;;-143.21;23.72;69826.16;5068120;28;20659;-78
2023/10/14 11:34:03;;;;;;;10.13;4.18;;;;;;;-143.21;23.10;69798.44;5065074;28;20219;-78
2023/10/14 11:36:30;;;;;;;7.10;3.55;;;;;;;-143.21;22.82;69786.53;5068382;28;20308;-77
2023/10/14 11:38:59;;;;;;;13.57;3.70;;;;;;;-143.21;22.77;69778.59;5068572;28;20640;-77
2023/10/14 11:41:27;;;;;;;13.55;4.30;;;;;;;-143.21;22.90;69766.72;5068667;28;20197;-78
2023/10/14 11:43:54;;;;;;;13.20;4.40;;;;;;;-143.21;23.07;69762.75;5067798;28;20202;-79